sensor_id;sensor_type;location;lat;lon;timestamp;P1;durP1;ratioP1;P2;durP2;ratioP2
77701;SDS011;66868;42.708;23.404;2024-02-21T00:01:34;7.75;;;6.20;;
77701;SDS011;66868;42.708;23.404;2024-02-21T00:04:00;6.80;;;5.88;;
77701;SDS011;66868;42.708;23.404;2024-02-21T00:06:25;6.20;;;5.57;;
77701;SDS011;66868;42.708;23.404;2024-02-21T00:08:51;7.63;;;6.10;;
77701;SDS011;66868;42.708;23.404;2024-02-21T00:11:16;7.13;;;6.45;;
77701;SDS011;66868;42.708;23.404;2024-02-21T00:13:42;8.45;;;6.10;;
77701;SDS011;66868;42.708;23.404;2024-02-21T00:16:07;7.95;;;6.53;;
77701;SDS011;66868;42.708;23.404;2024-02-21T00:18:33;7.32;;;5.90;;
77701;SDS011;66868;42.708;23.404;2024-02-21T00:20:58;9.70;;;6.60;;
77701;SDS011;66868;42.708;23.404;2024-02-21T00:23:26;6.57;;;5.90;;
77701;SDS011;66868;42.708;23.404;2024-02-21T00:25:52;6.00;;;5.40;;
77701;SDS011;66868;42.708;23.404;2024-02-21T00:28:17;7.18;;;6.45;;
77701;SDS011;66868;42.708;23.404;2024-02-21T00:30:43;7.63;;;6.60;;
77701;SDS011;66868;42.708;23.404;2024-02-21T00:33:09;9.85;;;7.20;;
77701;SDS011;66868;42.708;23.404;2024-02-21T00:35:34;7.70;;;6.90;;
77701;SDS011;66868;42.708;23.404;2024-02-21T00:38:00;7.50;;;6.40;;
77701;SDS011;66868;42.708;23.404;2024-02-21T00:40:25;7.53;;;6.68;;
77701;SDS011;66868;42.708;23.404;2024-02-21T00:42:51;8.25;;;6.72;;
77701;SDS011;66868;42.708;23.404;2024-02-21T00:45:16;6.93;;;6.22;;
77701;SDS011;66868;42.708;23.404;2024-02-21T00:47:42;7.10;;;6.32;;
77701;SDS011;66868;42.708;23.404;2024-02-21T00:50:07;6.87;;;6.17;;
77701;SDS011;66868;42.708;23.404;2024-02-21T00:52:34;7.30;;;6.00;;
77701;SDS011;66868;42.708;23.404;2024-02-21T00:55:00;7.13;;;6.07;;
77701;SDS011;66868;42.708;23.404;2024-02-21T00:57:25;6.03;;;5.25;;
77701;SDS011;66868;42.708;23.404;2024-02-21T00:59:51;7.13;;;6.15;;
77701;SDS011;66868;42.708;23.404;2024-02-21T01:02:17;6.17;;;5.63;;
77701;SDS011;66868;42.708;23.404;2024-02-21T01:04:42;7.90;;;6.30;;
77701;SDS011;66868;42.708;23.404;2024-02-21T01:07:08;8.07;;;5.93;;
77701;SDS011;66868;42.708;23.404;2024-02-21T01:09:33;8.18;;;5.85;;
77701;SDS011;66868;42.708;23.404;2024-02-21T01:11:59;5.80;;;5.22;;
77701;SDS011;66868;42.708;23.404;2024-02-21T01:14:24;6.43;;;5.82;;
77701;SDS011;66868;42.708;23.404;2024-02-21T01:16:50;6.40;;;5.82;;
77701;SDS011;66868;42.708;23.404;2024-02-21T01:19:15;6.03;;;5.43;;
77701;SDS011;66868;42.708;23.404;2024-02-21T01:21:41;6.00;;;5.45;;
77701;SDS011;66868;42.708;23.404;2024-02-21T01:24:06;5.88;;;5.38;;
77701;SDS011;66868;42.708;23.404;2024-02-21T01:26:32;6.50;;;5.22;;
77701;SDS011;66868;42.708;23.404;2024-02-21T01:28:57;6.43;;;5.55;;
77701;SDS011;66868;42.708;23.404;2024-02-21T01:31:22;5.65;;;5.15;;
77701;SDS011;66868;42.708;23.404;2024-02-21T01:33:48;4.97;;;4.53;;
77701;SDS011;66868;42.708;23.404;2024-02-21T01:36:13;5.60;;;5.10;;
77701;SDS011;66868;42.708;23.404;2024-02-21T01:38:39;5.45;;;4.95;;
77701;SDS011;66868;42.708;23.404;2024-02-21T01:41:04;5.40;;;4.90;;
77701;SDS011;66868;42.708;23.404;2024-02-21T01:43:30;5.70;;;5.15;;
77701;SDS011;66868;42.708;23.404;2024-02-21T01:45:55;6.20;;;5.43;;
77701;SDS011;66868;42.708;23.404;2024-02-21T01:48:22;5.47;;;4.97;;
77701;SDS011;66868;42.708;23.404;2024-02-21T01:50:52;5.70;;;5.20;;
77701;SDS011;66868;42.708;23.404;2024-02-21T01:53:20;6.50;;;6.00;;
77701;SDS011;66868;42.708;23.404;2024-02-21T01:55:52;8.32;;;6.18;;
77701;SDS011;66868;42.708;23.404;2024-02-21T01:58:18;6.38;;;5.88;;
77701;SDS011;66868;42.708;23.404;2024-02-21T02:00:45;8.32;;;6.28;;
77701;SDS011;66868;42.708;23.404;2024-02-21T02:03:12;6.32;;;5.65;;
77701;SDS011;66868;42.708;23.404;2024-02-21T02:05:44;5.90;;;5.43;;
77701;SDS011;66868;42.708;23.404;2024-02-21T02:08:14;6.15;;;5.55;;
77701;SDS011;66868;42.708;23.404;2024-02-21T02:10:40;8.07;;;6.60;;
77701;SDS011;66868;42.708;23.404;2024-02-21T02:13:06;6.90;;;6.20;;
77701;SDS011;66868;42.708;23.404;2024-02-21T02:15:43;7.43;;;6.40;;
77701;SDS011;66868;42.708;23.404;2024-02-21T02:18:10;8.10;;;6.47;;
77701;SDS011;66868;42.708;23.404;2024-02-21T02:20:37;7.28;;;6.57;;
77701;SDS011;66868;42.708;23.404;2024-02-21T02:23:09;6.90;;;6.07;;
77701;SDS011;66868;42.708;23.404;2024-02-21T02:25:36;7.00;;;6.20;;
77701;SDS011;66868;42.708;23.404;2024-02-21T02:28:06;7.57;;;6.82;;
77701;SDS011;66868;42.708;23.404;2024-02-21T02:30:33;6.65;;;5.93;;
77701;SDS011;66868;42.708;23.404;2024-02-21T02:32:59;7.47;;;6.40;;
77701;SDS011;66868;42.708;23.404;2024-02-21T02:35:25;7.38;;;6.22;;
77701;SDS011;66868;42.708;23.404;2024-02-21T02:37:51;6.93;;;6.10;;
77701;SDS011;66868;42.708;23.404;2024-02-21T02:40:17;6.60;;;6.00;;
77701;SDS011;66868;42.708;23.404;2024-02-21T02:42:43;6.75;;;5.97;;
77701;SDS011;66868;42.708;23.404;2024-02-21T02:45:09;6.57;;;5.97;;
77701;SDS011;66868;42.708;23.404;2024-02-21T02:47:35;7.45;;;6.75;;
77701;SDS011;66868;42.708;23.404;2024-02-21T02:50:00;9.00;;;6.75;;
77701;SDS011;66868;42.708;23.404;2024-02-21T02:52:26;9.30;;;7.10;;
77701;SDS011;66868;42.708;23.404;2024-02-21T02:54:52;8.50;;;6.38;;
77701;SDS011;66868;42.708;23.404;2024-02-21T02:57:20;7.75;;;6.20;;
77701;SDS011;66868;42.708;23.404;2024-02-21T02:59:49;5.97;;;5.40;;
77701;SDS011;66868;42.708;23.404;2024-02-21T03:02:14;7.88;;;6.55;;
77701;SDS011;66868;42.708;23.404;2024-02-21T03:04:40;6.63;;;5.93;;
77701;SDS011;66868;42.708;23.404;2024-02-21T03:07:05;7.18;;;6.20;;
77701;SDS011;66868;42.708;23.404;2024-02-21T03:09:31;7.97;;;6.60;;
77701;SDS011;66868;42.708;23.404;2024-02-21T03:11:57;11.55;;;7.45;;
77701;SDS011;66868;42.708;23.404;2024-02-21T03:14:28;8.88;;;6.95;;
77701;SDS011;66868;42.708;23.404;2024-02-21T03:16:53;12.52;;;7.68;;
77701;SDS011;66868;42.708;23.404;2024-02-21T03:19:19;7.95;;;6.65;;
77701;SDS011;66868;42.708;23.404;2024-02-21T03:21:44;7.80;;;7.00;;
77701;SDS011;66868;42.708;23.404;2024-02-21T03:24:10;10.10;;;7.47;;
77701;SDS011;66868;42.708;23.404;2024-02-21T03:26:35;8.90;;;7.50;;
77701;SDS011;66868;42.708;23.404;2024-02-21T03:29:01;16.63;;;9.00;;
77701;SDS011;66868;42.708;23.404;2024-02-21T03:31:26;16.17;;;11.02;;
77701;SDS011;66868;42.708;23.404;2024-02-21T03:33:52;27.35;;;13.30;;
77701;SDS011;66868;42.708;23.404;2024-02-21T03:36:18;14.82;;;10.73;;
77701;SDS011;66868;42.708;23.404;2024-02-21T03:38:43;14.07;;;9.43;;
77701;SDS011;66868;42.708;23.404;2024-02-21T03:41:10;13.23;;;9.23;;
77701;SDS011;66868;42.708;23.404;2024-02-21T03:43:37;10.43;;;8.25;;
77701;SDS011;66868;42.708;23.404;2024-02-21T03:46:03;12.38;;;9.25;;
77701;SDS011;66868;42.708;23.404;2024-02-21T03:48:29;15.43;;;10.27;;
77701;SDS011;66868;42.708;23.404;2024-02-21T03:50:54;11.50;;;8.77;;
77701;SDS011;66868;42.708;23.404;2024-02-21T03:53:20;11.32;;;8.32;;
77701;SDS011;66868;42.708;23.404;2024-02-21T03:55:45;11.02;;;8.15;;
77701;SDS011;66868;42.708;23.404;2024-02-21T03:58:10;9.05;;;8.00;;
77701;SDS011;66868;42.708;23.404;2024-02-21T04:00:36;10.55;;;8.70;;
77701;SDS011;66868;42.708;23.404;2024-02-21T04:03:02;13.05;;;9.30;;
77701;SDS011;66868;42.708;23.404;2024-02-21T04:05:27;17.23;;;10.60;;
77701;SDS011;66868;42.708;23.404;2024-02-21T04:07:53;13.13;;;9.38;;
77701;SDS011;66868;42.708;23.404;2024-02-21T04:10:18;15.57;;;10.20;;
77701;SDS011;66868;42.708;23.404;2024-02-21T04:12:44;13.50;;;9.98;;
77701;SDS011;66868;42.708;23.404;2024-02-21T04:15:09;14.70;;;10.60;;
77701;SDS011;66868;42.708;23.404;2024-02-21T04:17:35;18.98;;;12.57;;
77701;SDS011;66868;42.708;23.404;2024-02-21T04:20:04;34.10;;;19.92;;
77701;SDS011;66868;42.708;23.404;2024-02-21T04:22:31;20.63;;;13.73;;
77701;SDS011;66868;42.708;23.404;2024-02-21T04:25:00;14.32;;;10.00;;
77701;SDS011;66868;42.708;23.404;2024-02-21T04:27:26;10.48;;;8.80;;
77701;SDS011;66868;42.708;23.404;2024-02-21T04:29:51;10.43;;;8.73;;
77701;SDS011;66868;42.708;23.404;2024-02-21T04:32:18;8.68;;;7.43;;
77701;SDS011;66868;42.708;23.404;2024-02-21T04:34:43;11.45;;;8.20;;
77701;SDS011;66868;42.708;23.404;2024-02-21T04:37:09;13.05;;;8.98;;
77701;SDS011;66868;42.708;23.404;2024-02-21T04:39:35;18.60;;;12.43;;
77701;SDS011;66868;42.708;23.404;2024-02-21T04:42:00;21.55;;;11.60;;
77701;SDS011;66868;42.708;23.404;2024-02-21T04:44:26;29.63;;;15.10;;
77701;SDS011;66868;42.708;23.404;2024-02-21T04:46:51;30.05;;;15.88;;
77701;SDS011;66868;42.708;23.404;2024-02-21T04:49:17;33.20;;;16.40;;
77701;SDS011;66868;42.708;23.404;2024-02-21T04:51:42;33.75;;;16.80;;
77701;SDS011;66868;42.708;23.404;2024-02-21T04:54:08;22.05;;;13.10;;
77701;SDS011;66868;42.708;23.404;2024-02-21T04:56:34;13.20;;;10.20;;
77701;SDS011;66868;42.708;23.404;2024-02-21T04:58:59;12.27;;;9.32;;
77701;SDS011;66868;42.708;23.404;2024-02-21T05:01:25;11.93;;;9.57;;
77701;SDS011;66868;42.708;23.404;2024-02-21T05:03:50;12.27;;;9.18;;
77701;SDS011;66868;42.708;23.404;2024-02-21T05:06:16;13.40;;;10.15;;
77701;SDS011;66868;42.708;23.404;2024-02-21T05:08:42;14.18;;;9.35;;
77701;SDS011;66868;42.708;23.404;2024-02-21T05:11:07;9.80;;;8.30;;
77701;SDS011;66868;42.708;23.404;2024-02-21T05:13:33;13.85;;;9.57;;
77701;SDS011;66868;42.708;23.404;2024-02-21T05:15:58;13.77;;;9.50;;
77701;SDS011;66868;42.708;23.404;2024-02-21T05:18:26;14.70;;;10.13;;
77701;SDS011;66868;42.708;23.404;2024-02-21T05:20:52;15.00;;;10.32;;
77701;SDS011;66868;42.708;23.404;2024-02-21T05:23:18;14.32;;;10.70;;
77701;SDS011;66868;42.708;23.404;2024-02-21T05:25:43;24.73;;;15.23;;
77701;SDS011;66868;42.708;23.404;2024-02-21T05:28:08;22.17;;;13.17;;
77701;SDS011;66868;42.708;23.404;2024-02-21T05:30:34;20.05;;;13.57;;
77701;SDS011;66868;42.708;23.404;2024-02-21T05:33:03;22.33;;;13.95;;
77701;SDS011;66868;42.708;23.404;2024-02-21T05:35:32;25.20;;;15.70;;
77701;SDS011;66868;42.708;23.404;2024-02-21T05:37:57;20.20;;;13.30;;
77701;SDS011;66868;42.708;23.404;2024-02-21T05:40:24;18.40;;;14.03;;
77701;SDS011;66868;42.708;23.404;2024-02-21T05:42:50;28.00;;;18.45;;
77701;SDS011;66868;42.708;23.404;2024-02-21T05:45:17;23.77;;;16.67;;
77701;SDS011;66868;42.708;23.404;2024-02-21T05:47:43;24.20;;;14.33;;
77701;SDS011;66868;42.708;23.404;2024-02-21T05:50:09;22.77;;;15.85;;
77701;SDS011;66868;42.708;23.404;2024-02-21T05:52:35;20.20;;;14.00;;
77701;SDS011;66868;42.708;23.404;2024-02-21T05:55:00;24.73;;;13.43;;
77701;SDS011;66868;42.708;23.404;2024-02-21T05:57:26;24.60;;;14.80;;
77701;SDS011;66868;42.708;23.404;2024-02-21T05:59:51;21.33;;;13.27;;
77701;SDS011;66868;42.708;23.404;2024-02-21T06:02:17;19.15;;;12.70;;
77701;SDS011;66868;42.708;23.404;2024-02-21T06:04:42;22.90;;;13.68;;
77701;SDS011;66868;42.708;23.404;2024-02-21T06:07:09;22.50;;;13.82;;
77701;SDS011;66868;42.708;23.404;2024-02-21T06:09:34;23.93;;;14.93;;
77701;SDS011;66868;42.708;23.404;2024-02-21T06:12:00;26.45;;;15.80;;
77701;SDS011;66868;42.708;23.404;2024-02-21T06:14:26;24.65;;;15.55;;
77701;SDS011;66868;42.708;23.404;2024-02-21T06:16:51;37.15;;;19.25;;
77701;SDS011;66868;42.708;23.404;2024-02-21T06:19:17;25.30;;;15.00;;
77701;SDS011;66868;42.708;23.404;2024-02-21T06:21:42;33.63;;;16.90;;
77701;SDS011;66868;42.708;23.404;2024-02-21T06:24:08;30.67;;;17.98;;
77701;SDS011;66868;42.708;23.404;2024-02-21T06:26:33;30.92;;;16.58;;
77701;SDS011;66868;42.708;23.404;2024-02-21T06:28:59;29.08;;;17.40;;
77701;SDS011;66868;42.708;23.404;2024-02-21T06:31:27;36.72;;;21.27;;
77701;SDS011;66868;42.708;23.404;2024-02-21T06:33:54;33.85;;;19.42;;
77701;SDS011;66868;42.708;23.404;2024-02-21T06:36:20;36.78;;;20.00;;
77701;SDS011;66868;42.708;23.404;2024-02-21T06:38:45;26.95;;;17.08;;
77701;SDS011;66868;42.708;23.404;2024-02-21T06:41:14;23.07;;;14.67;;
77701;SDS011;66868;42.708;23.404;2024-02-21T06:43:41;28.35;;;16.05;;
77701;SDS011;66868;42.708;23.404;2024-02-21T06:46:06;24.33;;;15.45;;
77701;SDS011;66868;42.708;23.404;2024-02-21T06:48:32;24.20;;;16.20;;
77701;SDS011;66868;42.708;23.404;2024-02-21T06:50:57;25.40;;;15.52;;
77701;SDS011;66868;42.708;23.404;2024-02-21T06:53:22;26.90;;;14.80;;
77701;SDS011;66868;42.708;23.404;2024-02-21T06:55:48;25.13;;;15.55;;
77701;SDS011;66868;42.708;23.404;2024-02-21T06:58:13;21.45;;;14.90;;
77701;SDS011;66868;42.708;23.404;2024-02-21T07:00:41;21.95;;;15.15;;
77701;SDS011;66868;42.708;23.404;2024-02-21T07:03:07;26.60;;;17.65;;
77701;SDS011;66868;42.708;23.404;2024-02-21T07:05:33;28.88;;;17.67;;
77701;SDS011;66868;42.708;23.404;2024-02-21T07:07:59;27.00;;;16.90;;
77701;SDS011;66868;42.708;23.404;2024-02-21T07:10:24;22.38;;;14.77;;
77701;SDS011;66868;42.708;23.404;2024-02-21T07:12:50;25.63;;;15.43;;
77701;SDS011;66868;42.708;23.404;2024-02-21T07:15:17;23.20;;;15.63;;
77701;SDS011;66868;42.708;23.404;2024-02-21T07:17:43;21.00;;;14.20;;
77701;SDS011;66868;42.708;23.404;2024-02-21T07:20:08;21.10;;;14.50;;
77701;SDS011;66868;42.708;23.404;2024-02-21T07:22:34;21.75;;;14.65;;
77701;SDS011;66868;42.708;23.404;2024-02-21T07:25:00;24.67;;;13.80;;
77701;SDS011;66868;42.708;23.404;2024-02-21T07:27:25;22.13;;;14.02;;
77701;SDS011;66868;42.708;23.404;2024-02-21T07:29:55;21.50;;;13.77;;
77701;SDS011;66868;42.708;23.404;2024-02-21T07:32:21;20.15;;;13.73;;
77701;SDS011;66868;42.708;23.404;2024-02-21T07:34:46;23.10;;;15.60;;
77701;SDS011;66868;42.708;23.404;2024-02-21T07:37:12;29.15;;;19.13;;
77701;SDS011;66868;42.708;23.404;2024-02-21T07:39:37;32.20;;;18.95;;
77701;SDS011;66868;42.708;23.404;2024-02-21T07:42:03;23.83;;;15.40;;
77701;SDS011;66868;42.708;23.404;2024-02-21T07:44:29;45.47;;;27.15;;
77701;SDS011;66868;42.708;23.404;2024-02-21T07:46:54;22.35;;;14.70;;
77701;SDS011;66868;42.708;23.404;2024-02-21T07:49:20;20.55;;;13.70;;
77701;SDS011;66868;42.708;23.404;2024-02-21T07:51:45;23.05;;;13.80;;
77701;SDS011;66868;42.708;23.404;2024-02-21T07:54:10;23.38;;;15.40;;
77701;SDS011;66868;42.708;23.404;2024-02-21T07:56:36;21.05;;;14.30;;
77701;SDS011;66868;42.708;23.404;2024-02-21T07:59:01;22.98;;;14.82;;
77701;SDS011;66868;42.708;23.404;2024-02-21T08:01:27;23.35;;;14.82;;
77701;SDS011;66868;42.708;23.404;2024-02-21T08:03:53;21.15;;;13.68;;
77701;SDS011;66868;42.708;23.404;2024-02-21T08:06:18;21.23;;;13.05;;
77701;SDS011;66868;42.708;23.404;2024-02-21T08:08:44;21.90;;;13.75;;
77701;SDS011;66868;42.708;23.404;2024-02-21T08:11:09;27.90;;;16.25;;
77701;SDS011;66868;42.708;23.404;2024-02-21T08:13:35;22.77;;;13.95;;
77701;SDS011;66868;42.708;23.404;2024-02-21T08:16:00;23.58;;;14.48;;
77701;SDS011;66868;42.708;23.404;2024-02-21T08:18:26;19.20;;;13.82;;
77701;SDS011;66868;42.708;23.404;2024-02-21T08:20:51;23.25;;;15.48;;
77701;SDS011;66868;42.708;23.404;2024-02-21T08:23:18;26.65;;;16.80;;
77701;SDS011;66868;42.708;23.404;2024-02-21T08:25:44;20.70;;;15.15;;
77701;SDS011;66868;42.708;23.404;2024-02-21T08:28:10;17.10;;;13.30;;
77701;SDS011;66868;42.708;23.404;2024-02-21T08:30:35;24.60;;;15.63;;
77701;SDS011;66868;42.708;23.404;2024-02-21T08:33:01;21.55;;;14.55;;
77701;SDS011;66868;42.708;23.404;2024-02-21T08:35:26;22.90;;;15.30;;
77701;SDS011;66868;42.708;23.404;2024-02-21T08:37:51;27.65;;;15.32;;
77701;SDS011;66868;42.708;23.404;2024-02-21T08:40:17;24.52;;;15.70;;
77701;SDS011;66868;42.708;23.404;2024-02-21T08:42:45;24.50;;;15.82;;
77701;SDS011;66868;42.708;23.404;2024-02-21T08:45:11;31.88;;;15.13;;
77701;SDS011;66868;42.708;23.404;2024-02-21T08:47:40;25.27;;;15.30;;
77701;SDS011;66868;42.708;23.404;2024-02-21T08:50:06;22.67;;;14.50;;
77701;SDS011;66868;42.708;23.404;2024-02-21T08:52:32;20.88;;;12.68;;
77701;SDS011;66868;42.708;23.404;2024-02-21T08:54:58;17.88;;;11.82;;
77701;SDS011;66868;42.708;23.404;2024-02-21T08:57:23;18.45;;;12.27;;
77701;SDS011;66868;42.708;23.404;2024-02-21T08:59:49;16.88;;;11.05;;
77701;SDS011;66868;42.708;23.404;2024-02-21T09:02:14;18.85;;;12.73;;
77701;SDS011;66868;42.708;23.404;2024-02-21T09:04:42;15.85;;;12.75;;
77701;SDS011;66868;42.708;23.404;2024-02-21T09:07:09;20.48;;;13.07;;
77701;SDS011;66868;42.708;23.404;2024-02-21T09:09:37;16.75;;;11.35;;
77701;SDS011;66868;42.708;23.404;2024-02-21T09:12:08;21.60;;;13.10;;
77701;SDS011;66868;42.708;23.404;2024-02-21T09:14:36;19.17;;;13.80;;
77701;SDS011;66868;42.708;23.404;2024-02-21T09:17:03;17.17;;;13.23;;
77701;SDS011;66868;42.708;23.404;2024-02-21T09:19:29;17.00;;;13.38;;
77701;SDS011;66868;42.708;23.404;2024-02-21T09:21:54;18.33;;;12.25;;
77701;SDS011;66868;42.708;23.404;2024-02-21T09:24:20;17.80;;;11.68;;
77701;SDS011;66868;42.708;23.404;2024-02-21T09:26:45;14.75;;;11.07;;
77701;SDS011;66868;42.708;23.404;2024-02-21T09:29:11;17.27;;;13.48;;
77701;SDS011;66868;42.708;23.404;2024-02-21T09:31:36;14.15;;;10.35;;
77701;SDS011;66868;42.708;23.404;2024-02-21T09:34:03;11.70;;;9.23;;
77701;SDS011;66868;42.708;23.404;2024-02-21T09:36:30;13.68;;;9.93;;
77701;SDS011;66868;42.708;23.404;2024-02-21T09:38:55;15.52;;;11.10;;
77701;SDS011;66868;42.708;23.404;2024-02-21T09:41:25;11.98;;;9.52;;
77701;SDS011;66868;42.708;23.404;2024-02-21T09:43:53;14.00;;;9.13;;
77701;SDS011;66868;42.708;23.404;2024-02-21T09:46:21;13.68;;;10.65;;
77701;SDS011;66868;42.708;23.404;2024-02-21T09:51:15;17.58;;;11.85;;
77701;SDS011;66868;42.708;23.404;2024-02-21T09:53:42;16.33;;;10.63;;
77701;SDS011;66868;42.708;23.404;2024-02-21T09:56:09;19.27;;;11.88;;
77701;SDS011;66868;42.708;23.404;2024-02-21T09:58:35;18.35;;;12.52;;
77701;SDS011;66868;42.708;23.404;2024-02-21T10:01:01;20.33;;;11.65;;
77701;SDS011;66868;42.708;23.404;2024-02-21T10:03:31;15.20;;;11.57;;
77701;SDS011;66868;42.708;23.404;2024-02-21T10:05:58;13.13;;;10.30;;
77701;SDS011;66868;42.708;23.404;2024-02-21T10:08:25;14.10;;;10.13;;
77701;SDS011;66868;42.708;23.404;2024-02-21T10:10:51;13.63;;;9.85;;
77701;SDS011;66868;42.708;23.404;2024-02-21T10:13:30;15.40;;;10.25;;
77701;SDS011;66868;42.708;23.404;2024-02-21T10:18:27;11.63;;;9.30;;
77701;SDS011;66868;42.708;23.404;2024-02-21T10:23:46;15.88;;;9.73;;
77701;SDS011;66868;42.708;23.404;2024-02-21T10:26:13;11.23;;;9.68;;
77701;SDS011;66868;42.708;23.404;2024-02-21T10:28:39;15.45;;;10.20;;
77701;SDS011;66868;42.708;23.404;2024-02-21T10:31:07;13.63;;;9.52;;
77701;SDS011;66868;42.708;23.404;2024-02-21T10:33:37;9.93;;;8.85;;
77701;SDS011;66868;42.708;23.404;2024-02-21T10:36:09;13.23;;;9.48;;
77701;SDS011;66868;42.708;23.404;2024-02-21T10:38:39;12.10;;;9.60;;
77701;SDS011;66868;42.708;23.404;2024-02-21T10:41:05;11.52;;;8.90;;
77701;SDS011;66868;42.708;23.404;2024-02-21T10:43:35;11.60;;;8.82;;
77701;SDS011;66868;42.708;23.404;2024-02-21T10:46:05;11.68;;;8.38;;
77701;SDS011;66868;42.708;23.404;2024-02-21T10:48:43;10.00;;;8.32;;
77701;SDS011;66868;42.708;23.404;2024-02-21T10:51:19;15.70;;;8.52;;
77701;SDS011;66868;42.708;23.404;2024-02-21T10:59:10;10.88;;;8.75;;
77701;SDS011;66868;42.708;23.404;2024-02-21T11:01:38;14.35;;;9.90;;
77701;SDS011;66868;42.708;23.404;2024-02-21T11:06:30;12.63;;;9.40;;
77701;SDS011;66868;42.708;23.404;2024-02-21T11:09:05;10.52;;;8.73;;
77701;SDS011;66868;42.708;23.404;2024-02-21T11:11:33;6.22;;;5.78;;
77701;SDS011;66868;42.708;23.404;2024-02-21T11:16:58;8.82;;;7.80;;
77701;SDS011;66868;42.708;23.404;2024-02-21T11:19:26;6.82;;;6.32;;
77701;SDS011;66868;42.708;23.404;2024-02-21T11:21:53;7.95;;;7.18;;
77701;SDS011;66868;42.708;23.404;2024-02-21T11:24:27;8.70;;;6.10;;
77701;SDS011;66868;42.708;23.404;2024-02-21T11:26:55;5.72;;;5.38;;
77701;SDS011;66868;42.708;23.404;2024-02-21T11:29:24;5.20;;;4.60;;
77701;SDS011;66868;42.708;23.404;2024-02-21T11:31:53;5.05;;;4.68;;
77701;SDS011;66868;42.708;23.404;2024-02-21T11:34:20;4.43;;;4.07;;
77701;SDS011;66868;42.708;23.404;2024-02-21T11:36:46;3.67;;;3.47;;
77701;SDS011;66868;42.708;23.404;2024-02-21T11:39:19;4.63;;;3.90;;
77701;SDS011;66868;42.708;23.404;2024-02-21T11:42:05;3.88;;;3.67;;
77701;SDS011;66868;42.708;23.404;2024-02-21T11:44:33;4.25;;;3.85;;
77701;SDS011;66868;42.708;23.404;2024-02-21T11:47:00;4.75;;;4.35;;
77701;SDS011;66868;42.708;23.404;2024-02-21T11:49:26;8.73;;;4.50;;
77701;SDS011;66868;42.708;23.404;2024-02-21T11:52:00;5.00;;;4.63;;
77701;SDS011;66868;42.708;23.404;2024-02-21T11:54:26;4.88;;;4.57;;
77701;SDS011;66868;42.708;23.404;2024-02-21T11:56:53;8.80;;;4.65;;
77701;SDS011;66868;42.708;23.404;2024-02-21T11:59:19;5.57;;;4.78;;
77701;SDS011;66868;42.708;23.404;2024-02-21T12:01:44;8.60;;;4.72;;
77701;SDS011;66868;42.708;23.404;2024-02-21T12:04:10;6.82;;;5.15;;
77701;SDS011;66868;42.708;23.404;2024-02-21T12:06:35;5.25;;;4.80;;
77701;SDS011;66868;42.708;23.404;2024-02-21T12:09:01;6.25;;;5.18;;
77701;SDS011;66868;42.708;23.404;2024-02-21T12:11:26;12.85;;;5.57;;
77701;SDS011;66868;42.708;23.404;2024-02-21T12:14:01;5.60;;;5.10;;
77701;SDS011;66868;42.708;23.404;2024-02-21T12:16:31;5.28;;;4.88;;
77701;SDS011;66868;42.708;23.404;2024-02-21T12:18:57;5.45;;;4.95;;
77701;SDS011;66868;42.708;23.404;2024-02-21T12:21:27;6.70;;;5.15;;
77701;SDS011;66868;42.708;23.404;2024-02-21T12:23:55;6.28;;;5.68;;
77701;SDS011;66868;42.708;23.404;2024-02-21T12:26:21;7.30;;;4.70;;
77701;SDS011;66868;42.708;23.404;2024-02-21T12:28:47;4.70;;;4.40;;
77701;SDS011;66868;42.708;23.404;2024-02-21T12:31:13;5.72;;;5.20;;
77701;SDS011;66868;42.708;23.404;2024-02-21T12:33:39;4.82;;;4.53;;
77701;SDS011;66868;42.708;23.404;2024-02-21T12:36:04;4.97;;;4.57;;
77701;SDS011;66868;42.708;23.404;2024-02-21T12:38:30;9.40;;;5.93;;
77701;SDS011;66868;42.708;23.404;2024-02-21T12:40:55;8.05;;;5.28;;
77701;SDS011;66868;42.708;23.404;2024-02-21T12:43:22;5.32;;;4.93;;
77701;SDS011;66868;42.708;23.404;2024-02-21T12:45:48;9.73;;;5.00;;
77701;SDS011;66868;42.708;23.404;2024-02-21T12:48:14;6.70;;;4.93;;
77701;SDS011;66868;42.708;23.404;2024-02-21T12:50:40;5.28;;;4.88;;
77701;SDS011;66868;42.708;23.404;2024-02-21T12:53:13;9.93;;;7.20;;
77701;SDS011;66868;42.708;23.404;2024-02-21T12:55:40;8.73;;;7.32;;
77701;SDS011;66868;42.708;23.404;2024-02-21T12:58:06;9.43;;;6.90;;
77701;SDS011;66868;42.708;23.404;2024-02-21T13:00:32;8.80;;;7.28;;
77701;SDS011;66868;42.708;23.404;2024-02-21T13:02:57;9.70;;;7.68;;
77701;SDS011;66868;42.708;23.404;2024-02-21T13:05:23;8.82;;;7.47;;
77701;SDS011;66868;42.708;23.404;2024-02-21T13:07:49;9.18;;;7.75;;
77701;SDS011;66868;42.708;23.404;2024-02-21T13:10:14;8.95;;;7.13;;
77701;SDS011;66868;42.708;23.404;2024-02-21T13:12:40;12.65;;;10.73;;
77701;SDS011;66868;42.708;23.404;2024-02-21T13:15:05;11.00;;;8.25;;
77701;SDS011;66868;42.708;23.404;2024-02-21T13:17:31;10.98;;;7.32;;
77701;SDS011;66868;42.708;23.404;2024-02-21T13:19:58;12.52;;;6.43;;
77701;SDS011;66868;42.708;23.404;2024-02-21T13:22:23;7.45;;;6.75;;
77701;SDS011;66868;42.708;23.404;2024-02-21T13:24:51;7.57;;;5.80;;
77701;SDS011;66868;42.708;23.404;2024-02-21T13:27:17;9.90;;;6.25;;
77701;SDS011;66868;42.708;23.404;2024-02-21T13:29:42;8.38;;;6.25;;
77701;SDS011;66868;42.708;23.404;2024-02-21T13:32:08;6.53;;;6.03;;
77701;SDS011;66868;42.708;23.404;2024-02-21T13:34:33;16.13;;;6.57;;
77701;SDS011;66868;42.708;23.404;2024-02-21T13:36:59;8.75;;;5.75;;
77701;SDS011;66868;42.708;23.404;2024-02-21T13:39:24;5.57;;;4.97;;
77701;SDS011;66868;42.708;23.404;2024-02-21T13:41:50;6.72;;;5.78;;
77701;SDS011;66868;42.708;23.404;2024-02-21T13:44:16;6.00;;;4.63;;
77701;SDS011;66868;42.708;23.404;2024-02-21T13:46:41;11.20;;;9.32;;
77701;SDS011;66868;42.708;23.404;2024-02-21T13:49:07;13.85;;;8.45;;
77701;SDS011;66868;42.708;23.404;2024-02-21T13:51:33;13.00;;;9.60;;
77701;SDS011;66868;42.708;23.404;2024-02-21T13:54:02;10.40;;;7.55;;
77701;SDS011;66868;42.708;23.404;2024-02-21T13:56:34;12.00;;;9.63;;
77701;SDS011;66868;42.708;23.404;2024-02-21T13:59:00;15.38;;;10.93;;
77701;SDS011;66868;42.708;23.404;2024-02-21T14:01:25;12.48;;;10.05;;
77701;SDS011;66868;42.708;23.404;2024-02-21T14:03:53;12.05;;;8.95;;
77701;SDS011;66868;42.708;23.404;2024-02-21T14:06:18;11.07;;;8.68;;
77701;SDS011;66868;42.708;23.404;2024-02-21T14:08:44;11.88;;;9.30;;
77701;SDS011;66868;42.708;23.404;2024-02-21T14:11:10;13.55;;;10.18;;
77701;SDS011;66868;42.708;23.404;2024-02-21T14:13:35;15.93;;;10.98;;
77701;SDS011;66868;42.708;23.404;2024-02-21T14:16:01;8.88;;;7.97;;
77701;SDS011;66868;42.708;23.404;2024-02-21T14:18:27;9.70;;;8.70;;
77701;SDS011;66868;42.708;23.404;2024-02-21T14:20:52;8.20;;;7.20;;
77701;SDS011;66868;42.708;23.404;2024-02-21T14:23:18;9.95;;;8.50;;
77701;SDS011;66868;42.708;23.404;2024-02-21T14:25:43;5.70;;;5.18;;
77701;SDS011;66868;42.708;23.404;2024-02-21T14:28:09;6.10;;;5.25;;
77701;SDS011;66868;42.708;23.404;2024-02-21T14:30:35;8.48;;;4.82;;
77701;SDS011;66868;42.708;23.404;2024-02-21T14:33:01;6.68;;;5.70;;
77701;SDS011;66868;42.708;23.404;2024-02-21T14:35:26;5.65;;;5.10;;